createdAt,value
2023-05-09T00:04:41.024Z,17.45
2023-05-09T00:09:45.120Z,16.75
2023-05-09T00:14:50.506Z,12.68
2023-05-09T00:19:56.635Z,14.57
2023-05-09T00:25:00.900Z,14.93
2023-05-09T00:30:07.897Z,14.57
2023-05-09T00:35:15.561Z,15.20
2023-05-09T00:40:19.904Z,12.48
2023-05-09T00:45:24.107Z,13.88
2023-05-09T00:50:29.582Z,13.20
2023-05-09T00:55:33.744Z,16.27
2023-05-09T01:00:38.305Z,14.07
2023-05-09T01:05:54.664Z,12.23
2023-05-09T01:11:06.487Z,14.30
2023-05-09T01:16:19.155Z,14.98
2023-05-09T01:21:30.292Z,12.38
2023-05-09T01:26:48.346Z,11.75
2023-05-09T01:31:54.814Z,9.43
2023-05-09T01:37:02.388Z,14.80
2023-05-09T01:42:09.730Z,12.93
2023-05-09T01:47:17.492Z,13.02
2023-05-09T01:52:22.735Z,12.05
2023-05-09T01:57:28.350Z,13.48
2023-05-09T02:02:34.827Z,17.20
2023-05-09T02:07:41.251Z,12.77
2023-05-09T02:12:45.463Z,12.50
2023-05-09T02:17:51.084Z,13.80
2023-05-09T02:22:55.461Z,11.68
2023-05-09T02:28:00.986Z,16.38
2023-05-09T02:33:10.078Z,12.00
2023-05-09T02:38:14.786Z,12.82
2023-05-09T02:43:18.845Z,16.17
2023-05-09T02:48:24.367Z,13.40
2023-05-09T02:53:28.510Z,16.70
2023-05-09T02:58:32.649Z,17.08
2023-05-09T03:03:38.343Z,15.75
2023-05-09T03:08:42.729Z,15.88
2023-05-09T03:13:48.068Z,13.20
2023-05-09T03:18:53.648Z,18.85
2023-05-09T03:23:57.848Z,14.48
2023-05-09T03:29:02.016Z,16.27
2023-05-09T03:34:07.621Z,14.45
2023-05-09T03:39:11.864Z,12.60
2023-05-09T03:44:18.406Z,13.32
2023-05-09T03:49:23.914Z,14.45
2023-05-09T03:54:30.956Z,17.23
2023-05-09T03:59:35.066Z,13.52
2023-05-09T04:04:41.161Z,15.80
2023-05-09T04:09:45.899Z,12.87
2023-05-09T04:14:51.813Z,13.20
2023-05-09T04:19:57.777Z,13.27
2023-05-09T04:25:02.197Z,13.73
2023-05-09T04:30:08.513Z,11.15
2023-05-09T04:35:16.665Z,18.45
2023-05-09T04:40:26.744Z,13.77
2023-05-09T04:45:35.470Z,10.73
2023-05-09T04:50:42.224Z,13.82
2023-05-09T04:55:46.262Z,10.15
2023-05-09T05:00:51.434Z,11.55
2023-05-09T05:05:57.329Z,8.02
2023-05-09T05:11:01.774Z,10.35
2023-05-09T05:16:06.477Z,12.07
2023-05-09T05:21:12.131Z,11.48
2023-05-09T05:26:17.418Z,11.63
2023-05-09T05:31:21.678Z,11.75
2023-05-09T05:36:27.216Z,10.20
2023-05-09T05:41:31.486Z,14.82
2023-05-09T05:46:35.670Z,14.10
2023-05-09T05:51:41.924Z,13.00
2023-05-09T05:56:47.044Z,12.55
2023-05-09T06:01:51.518Z,14.45
2023-05-09T06:06:57.195Z,16.42
2023-05-09T06:12:01.693Z,15.13
2023-05-09T06:17:06.904Z,14.30
2023-05-09T06:22:14.062Z,16.33
2023-05-09T06:27:18.228Z,16.65
2023-05-09T06:32:22.360Z,12.18
2023-05-09T06:37:28.237Z,13.90
2023-05-09T06:42:33.777Z,12.32
2023-05-09T06:47:38.223Z,14.57
2023-05-09T06:52:43.790Z,12.20
2023-05-09T06:57:48.129Z,12.65
2023-05-09T07:02:52.304Z,12.93
2023-05-09T07:07:57.878Z,12.10
2023-05-09T07:13:01.925Z,11.15
2023-05-09T07:18:06.417Z,13.07
2023-05-09T07:23:11.850Z,11.88
2023-05-09T07:28:15.871Z,10.05
2023-05-09T07:33:19.963Z,11.30
2023-05-09T07:38:25.457Z,10.68
2023-05-09T07:43:29.566Z,10.65
2023-05-09T07:48:33.638Z,10.32
2023-05-09T07:53:39.003Z,10.50
2023-05-09T07:58:43.065Z,10.00
2023-05-09T08:03:47.121Z,8.50
2023-05-09T08:08:52.616Z,11.93
2023-05-09T08:13:56.789Z,8.15
2023-05-09T08:19:00.903Z,7.47
2023-05-09T08:24:08.121Z,6.97
2023-05-09T08:29:12.560Z,6.82
2023-05-09T08:34:16.880Z,6.93
2023-05-09T08:39:23.551Z,7.85
2023-05-09T08:44:28.956Z,7.07
2023-05-09T08:49:33.517Z,9.70
2023-05-09T08:54:39.297Z,8.80
2023-05-09T08:59:45.531Z,9.55
2023-05-09T09:04:49.665Z,8.27
2023-05-09T09:09:56.228Z,7.95
2023-05-09T09:15:06.586Z,8.73
2023-05-09T09:20:14.363Z,11.95
2023-05-09T09:25:20.073Z,7.57
2023-05-09T09:30:26.674Z,6.70
2023-05-09T09:35:30.761Z,6.80
2023-05-09T09:40:39.264Z,6.35
2023-05-09T09:45:43.963Z,5.90
2023-05-09T09:50:49.452Z,9.20
2023-05-09T09:55:55.010Z,8.50
2023-05-09T10:01:09.543Z,8.07
2023-05-09T10:06:15.331Z,6.55
2023-05-09T10:11:21.432Z,6.68
2023-05-09T10:16:35.691Z,4.90
2023-05-09T10:21:44.877Z,8.07
2023-05-09T10:26:51.872Z,9.60
2023-05-09T10:32:02.715Z,8.27
2023-05-09T10:37:07.631Z,4.95
2023-05-09T10:42:14.911Z,5.18
2023-05-09T10:47:19.672Z,6.32
2023-05-09T10:52:24.023Z,6.15
2023-05-09T10:57:31.242Z,5.97
2023-05-09T11:02:35.417Z,6.25
2023-05-09T11:07:39.460Z,6.13
2023-05-09T11:12:59.094Z,4.53
2023-05-09T11:18:08.408Z,7.05
2023-05-09T11:23:12.976Z,5.00
2023-05-09T11:28:30.632Z,3.90
2023-05-09T11:33:38.942Z,3.88
2023-05-09T11:38:43.848Z,4.97
2023-05-09T11:43:51.732Z,4.05
2023-05-09T11:48:55.971Z,5.45
2023-05-09T11:53:59.911Z,5.15
2023-05-09T11:59:05.278Z,5.65
2023-05-09T12:04:09.704Z,6.18
2023-05-09T12:09:14.794Z,6.75
2023-05-09T12:14:30.825Z,3.53
2023-05-09T12:19:35.281Z,6.97
2023-05-09T12:24:39.375Z,4.43
2023-05-09T12:29:46.133Z,5.18
2023-05-09T12:34:51.657Z,5.97
2023-05-09T12:40:04.170Z,4.90
2023-05-09T12:45:12.495Z,8.88
2023-05-09T12:50:16.558Z,7.70
2023-05-09T12:55:21.662Z,4.10
2023-05-09T13:00:27.457Z,3.20
2023-05-09T13:05:33.515Z,6.13
2023-05-09T13:10:37.533Z,5.40
2023-05-09T13:15:42.958Z,4.22
2023-05-09T13:20:46.918Z,3.17
2023-05-09T13:25:51.462Z,3.97
2023-05-09T13:30:56.920Z,7.35
2023-05-09T13:36:00.918Z,4.03
2023-05-09T13:41:05.195Z,3.22
2023-05-09T13:46:10.564Z,3.67
2023-05-09T13:51:15.011Z,3.65
2023-05-09T13:56:19.619Z,4.18
2023-05-09T14:01:25.160Z,3.70
2023-05-09T14:06:30.339Z,5.18
2023-05-09T14:11:34.443Z,5.15
2023-05-09T14:16:40.470Z,4.53
2023-05-09T14:21:44.788Z,3.37
2023-05-09T14:26:48.760Z,4.97
2023-05-09T14:31:54.213Z,4.18
2023-05-09T14:36:58.542Z,3.28
2023-05-09T14:42:02.649Z,3.88
2023-05-09T14:47:09.542Z,6.22
2023-05-09T14:52:13.850Z,4.68
2023-05-09T14:57:17.828Z,5.18
2023-05-09T15:02:23.246Z,6.22
2023-05-09T15:07:27.380Z,4.72
2023-05-09T15:12:31.304Z,3.45
2023-05-09T15:17:36.688Z,3.97
2023-05-09T15:22:40.721Z,3.53
2023-05-09T15:27:44.703Z,3.85
2023-05-09T15:32:50.188Z,5.82
2023-05-09T15:37:54.600Z,5.25
2023-05-09T15:42:59.648Z,3.38
2023-05-09T15:48:17.148Z,3.10
2023-05-09T15:53:23.124Z,3.25
2023-05-09T15:58:27.440Z,3.83
2023-05-09T16:03:32.897Z,5.30
2023-05-09T16:08:37.656Z,2.80
2023-05-09T16:13:42.050Z,3.00
2023-05-09T16:18:47.521Z,3.65
2023-05-09T16:23:51.740Z,2.92
2023-05-09T16:28:56.118Z,2.25
2023-05-09T16:34:01.525Z,2.38
2023-05-09T16:39:05.638Z,3.03
2023-05-09T16:44:09.671Z,3.65
2023-05-09T16:49:16.067Z,3.17
2023-05-09T16:54:20.099Z,4.75
2023-05-09T16:59:24.128Z,6.10
2023-05-09T17:04:29.567Z,4.28
2023-05-09T17:09:33.727Z,3.53
2023-05-09T17:14:37.753Z,5.25
2023-05-09T17:19:43.140Z,4.68
2023-05-09T17:24:47.174Z,7.80
2023-05-09T17:29:51.254Z,5.18
2023-05-09T17:34:56.779Z,8.13
2023-05-09T17:40:00.798Z,6.55
2023-05-09T17:45:05.293Z,8.10
2023-05-09T17:50:14.820Z,6.47
2023-05-09T17:55:19.359Z,7.50
2023-05-09T18:00:23.677Z,6.65
2023-05-09T18:05:29.116Z,8.27
2023-05-09T18:10:33.159Z,7.43
2023-05-09T18:15:38.465Z,7.40
2023-05-09T18:20:46.304Z,6.18
2023-05-09T18:25:50.479Z,7.72
2023-05-09T18:30:54.868Z,8.00
2023-05-09T18:36:00.334Z,8.07
2023-05-09T18:41:04.873Z,9.68
2023-05-09T18:46:08.893Z,11.38
2023-05-09T18:51:14.704Z,8.00
2023-05-09T18:56:20.951Z,8.30
2023-05-09T19:01:25.104Z,6.50
2023-05-09T19:06:31.894Z,6.15
2023-05-09T19:11:35.961Z,8.43
2023-05-09T19:16:40.038Z,5.30
2023-05-09T19:21:45.409Z,5.55
2023-05-09T19:26:49.425Z,6.20
2023-05-09T19:31:53.498Z,6.95
2023-05-09T19:36:59.002Z,5.43
2023-05-09T19:42:03.222Z,7.40
2023-05-09T19:47:09.579Z,5.63
2023-05-09T19:52:15.910Z,6.32
2023-05-09T19:57:20.588Z,6.68
2023-05-09T20:02:24.676Z,7.63
2023-05-09T20:07:30.214Z,5.68
2023-05-09T20:12:34.330Z,8.07
2023-05-09T20:17:38.394Z,6.88
2023-05-09T20:22:44.004Z,7.45
2023-05-09T20:27:48.142Z,8.65
2023-05-09T20:32:52.664Z,8.60
2023-05-09T20:37:58.100Z,9.25
2023-05-09T20:43:02.225Z,9.98
2023-05-09T20:48:08.022Z,7.88
2023-05-09T20:53:13.474Z,10.75
2023-05-09T20:58:17.502Z,9.93
2023-05-09T21:03:21.735Z,10.60
2023-05-09T21:08:27.486Z,8.85
2023-05-09T21:13:31.668Z,11.77
2023-05-09T21:18:35.683Z,10.70
2023-05-09T21:23:41.078Z,11.30
2023-05-09T21:28:45.137Z,10.88
2023-05-09T21:33:49.318Z,9.30
2023-05-09T21:38:54.754Z,8.48
2023-05-09T21:43:58.762Z,10.05
2023-05-09T21:49:03.031Z,8.57
2023-05-09T21:54:08.414Z,8.55
2023-05-09T21:59:12.369Z,11.07
2023-05-09T22:04:16.551Z,10.48
2023-05-09T22:09:23.487Z,10.50
2023-05-09T22:19:31.864Z,13.43
2023-05-09T22:24:37.530Z,11.63
2023-05-09T22:29:41.567Z,13.40
2023-05-09T22:34:48.468Z,12.20
2023-05-09T22:44:58.280Z,14.18
2023-05-09T22:50:02.375Z,16.60
2023-05-09T22:55:09.304Z,18.38
2023-05-09T23:05:19.305Z,18.55
2023-05-09T23:10:24.928Z,18.23
2023-05-09T23:15:29.056Z,19.55
2023-05-09T23:20:33.129Z,18.48
2023-05-09T23:25:38.937Z,19.17
2023-05-09T23:30:42.969Z,20.45
2023-05-09T23:35:47.043Z,20.52
2023-05-09T23:40:54.163Z,20.60
2023-05-09T23:45:58.250Z,20.40
2023-05-09T23:51:02.284Z,19.63
2023-05-09T23:56:08.761Z,23.77
